sensor_id;sensor_type;location;lat;lon;timestamp;temperature;humidity
37052;DHT22;22964;52.272;13.356;2023-02-01T00:00:33;9.40;67.90
37052;DHT22;22964;52.272;13.356;2023-02-01T00:03:00;9.40;68.20
37052;DHT22;22964;52.272;13.356;2023-02-01T00:05:26;9.40;68.10
37052;DHT22;22964;52.272;13.356;2023-02-01T00:07:52;9.30;67.70
37052;DHT22;22964;52.272;13.356;2023-02-01T00:10:18;9.30;68.10
37052;DHT22;22964;52.272;13.356;2023-02-01T00:12:43;9.30;68.00
37052;DHT22;22964;52.272;13.356;2023-02-01T00:15:10;9.30;67.90
37052;DHT22;22964;52.272;13.356;2023-02-01T00:17:36;9.30;68.10
37052;DHT22;22964;52.272;13.356;2023-02-01T00:20:02;9.30;68.10
37052;DHT22;22964;52.272;13.356;2023-02-01T00:22:28;9.20;68.00
37052;DHT22;22964;52.272;13.356;2023-02-01T00:24:54;9.20;68.10
37052;DHT22;22964;52.272;13.356;2023-02-01T00:27:19;9.20;68.20
37052;DHT22;22964;52.272;13.356;2023-02-01T00:29:46;9.20;68.50
37052;DHT22;22964;52.272;13.356;2023-02-01T00:32:14;9.20;68.20
37052;DHT22;22964;52.272;13.356;2023-02-01T00:34:39;9.20;68.50
37052;DHT22;22964;52.272;13.356;2023-02-01T00:37:05;9.20;68.40
37052;DHT22;22964;52.272;13.356;2023-02-01T00:39:31;9.20;68.50
37052;DHT22;22964;52.272;13.356;2023-02-01T00:41:57;9.30;68.50
37052;DHT22;22964;52.272;13.356;2023-02-01T00:44:22;9.20;68.30
37052;DHT22;22964;52.272;13.356;2023-02-01T00:46:48;9.20;69.30
37052;DHT22;22964;52.272;13.356;2023-02-01T00:49:14;9.30;68.40
37052;DHT22;22964;52.272;13.356;2023-02-01T00:51:40;9.20;68.40
37052;DHT22;22964;52.272;13.356;2023-02-01T00:54:05;9.30;68.60
37052;DHT22;22964;52.272;13.356;2023-02-01T00:56:31;9.30;68.40
37052;DHT22;22964;52.272;13.356;2023-02-01T00:58:57;9.30;68.30
37052;DHT22;22964;52.272;13.356;2023-02-01T01:01:25;9.30;68.30
37052;DHT22;22964;52.272;13.356;2023-02-01T01:03:53;9.30;68.20
37052;DHT22;22964;52.272;13.356;2023-02-01T01:06:21;9.40;68.30
37052;DHT22;22964;52.272;13.356;2023-02-01T01:08:50;9.40;68.10
37052;DHT22;22964;52.272;13.356;2023-02-01T01:11:19;9.40;67.70
37052;DHT22;22964;52.272;13.356;2023-02-01T01:13:47;9.40;68.00
37052;DHT22;22964;52.272;13.356;2023-02-01T01:16:13;9.40;67.70
37052;DHT22;22964;52.272;13.356;2023-02-01T01:18:39;9.30;68.00
37052;DHT22;22964;52.272;13.356;2023-02-01T01:21:06;9.40;69.00
37052;DHT22;22964;52.272;13.356;2023-02-01T01:23:33;9.30;68.10
37052;DHT22;22964;52.272;13.356;2023-02-01T01:25:59;9.30;68.10
37052;DHT22;22964;52.272;13.356;2023-02-01T01:28:25;9.30;68.20
37052;DHT22;22964;52.272;13.356;2023-02-01T01:30:50;9.40;67.80
37052;DHT22;22964;52.272;13.356;2023-02-01T01:33:16;9.30;67.60
37052;DHT22;22964;52.272;13.356;2023-02-01T01:35:42;9.30;67.50
37052;DHT22;22964;52.272;13.356;2023-02-01T01:38:09;9.30;67.40
37052;DHT22;22964;52.272;13.356;2023-02-01T01:40:35;9.30;67.70
37052;DHT22;22964;52.272;13.356;2023-02-01T01:43:01;9.30;67.50
37052;DHT22;22964;52.272;13.356;2023-02-01T01:45:28;9.30;67.60
37052;DHT22;22964;52.272;13.356;2023-02-01T01:48:20;9.30;67.50
37052;DHT22;22964;52.272;13.356;2023-02-01T01:50:57;9.30;67.50
37052;DHT22;22964;52.272;13.356;2023-02-01T01:53:28;9.30;67.10
37052;DHT22;22964;52.272;13.356;2023-02-01T01:55:57;9.30;67.30
37052;DHT22;22964;52.272;13.356;2023-02-01T01:58:26;9.20;67.50
37052;DHT22;22964;52.272;13.356;2023-02-01T02:00:53;9.20;67.50
37052;DHT22;22964;52.272;13.356;2023-02-01T02:03:20;9.20;67.30
37052;DHT22;22964;52.272;13.356;2023-02-01T02:05:50;9.20;67.40
37052;DHT22;22964;52.272;13.356;2023-02-01T02:08:18;9.10;67.90
37052;DHT22;22964;52.272;13.356;2023-02-01T02:10:47;9.10;67.70
37052;DHT22;22964;52.272;13.356;2023-02-01T02:13:38;9.10;67.90
37052;DHT22;22964;52.272;13.356;2023-02-01T02:21:12;9.10;67.60
37052;DHT22;22964;52.272;13.356;2023-02-01T02:35:15;9.00;68.10
37052;DHT22;22964;52.272;13.356;2023-02-01T02:38:10;9.00;67.90
37052;DHT22;22964;52.272;13.356;2023-02-01T02:40:48;9.00;68.20
37052;DHT22;22964;52.272;13.356;2023-02-01T02:43:22;9.00;68.10
37052;DHT22;22964;52.272;13.356;2023-02-01T02:46:36;9.00;68.20
37052;DHT22;22964;52.272;13.356;2023-02-01T02:49:27;9.00;68.10
37052;DHT22;22964;52.272;13.356;2023-02-01T02:52:15;9.00;68.30
37052;DHT22;22964;52.272;13.356;2023-02-01T02:55:15;9.00;68.60
37052;DHT22;22964;52.272;13.356;2023-02-01T02:57:43;9.00;68.70
37052;DHT22;22964;52.272;13.356;2023-02-01T03:00:30;9.10;68.60
37052;DHT22;22964;52.272;13.356;2023-02-01T03:03:16;9.10;68.60
37052;DHT22;22964;52.272;13.356;2023-02-01T03:06:01;9.10;68.60
37052;DHT22;22964;52.272;13.356;2023-02-01T03:08:29;9.10;68.60
37052;DHT22;22964;52.272;13.356;2023-02-01T03:11:05;9.20;68.50
37052;DHT22;22964;52.272;13.356;2023-02-01T03:13:56;9.10;68.50
37052;DHT22;22964;52.272;13.356;2023-02-01T03:21:40;9.20;68.00
37052;DHT22;22964;52.272;13.356;2023-02-01T03:26:53;9.20;68.20
37052;DHT22;22964;52.272;13.356;2023-02-01T03:29:29;9.20;68.10
37052;DHT22;22964;52.272;13.356;2023-02-01T03:31:56;9.20;68.00
37052;DHT22;22964;52.272;13.356;2023-02-01T03:34:21;9.20;67.80
37052;DHT22;22964;52.272;13.356;2023-02-01T03:36:50;9.20;68.70
37052;DHT22;22964;52.272;13.356;2023-02-01T03:40:10;9.20;68.10
37052;DHT22;22964;52.272;13.356;2023-02-01T03:42:35;9.20;68.00
37052;DHT22;22964;52.272;13.356;2023-02-01T03:45:03;9.20;68.10
37052;DHT22;22964;52.272;13.356;2023-02-01T03:47:30;9.20;68.20
37052;DHT22;22964;52.272;13.356;2023-02-01T03:50:06;9.20;68.00
37052;DHT22;22964;52.272;13.356;2023-02-01T03:52:47;9.20;68.00
37052;DHT22;22964;52.272;13.356;2023-02-01T03:55:16;9.20;67.80
37052;DHT22;22964;52.272;13.356;2023-02-01T03:57:51;9.20;67.80
37052;DHT22;22964;52.272;13.356;2023-02-01T04:00:22;9.20;67.90
37052;DHT22;22964;52.272;13.356;2023-02-01T04:02:50;9.20;67.80
37052;DHT22;22964;52.272;13.356;2023-02-01T04:05:15;9.20;67.80
37052;DHT22;22964;52.272;13.356;2023-02-01T04:07:49;9.20;68.00
37052;DHT22;22964;52.272;13.356;2023-02-01T04:10:15;9.20;68.10
37052;DHT22;22964;52.272;13.356;2023-02-01T04:12:41;9.30;68.10
37052;DHT22;22964;52.272;13.356;2023-02-01T04:15:08;9.30;68.10
37052;DHT22;22964;52.272;13.356;2023-02-01T04:17:33;9.30;68.10
37052;DHT22;22964;52.272;13.356;2023-02-01T04:19:59;9.30;68.10
37052;DHT22;22964;52.272;13.356;2023-02-01T04:22:25;9.30;68.10
37052;DHT22;22964;52.272;13.356;2023-02-01T04:24:51;9.30;68.10
37052;DHT22;22964;52.272;13.356;2023-02-01T04:27:16;9.30;67.90
37052;DHT22;22964;52.272;13.356;2023-02-01T04:29:42;9.40;68.40
37052;DHT22;22964;52.272;13.356;2023-02-01T04:32:08;9.40;68.40
37052;DHT22;22964;52.272;13.356;2023-02-01T04:34:33;9.40;68.40
37052;DHT22;22964;52.272;13.356;2023-02-01T04:36:59;9.40;68.30
37052;DHT22;22964;52.272;13.356;2023-02-01T04:39:25;9.50;68.30
37052;DHT22;22964;52.272;13.356;2023-02-01T04:41:51;9.50;68.20
37052;DHT22;22964;52.272;13.356;2023-02-01T04:44:18;9.50;68.00
37052;DHT22;22964;52.272;13.356;2023-02-01T04:46:45;9.50;67.90
37052;DHT22;22964;52.272;13.356;2023-02-01T04:49:12;9.50;67.80
37052;DHT22;22964;52.272;13.356;2023-02-01T04:51:38;9.50;67.80
37052;DHT22;22964;52.272;13.356;2023-02-01T04:54:04;9.50;68.00
37052;DHT22;22964;52.272;13.356;2023-02-01T04:56:30;9.50;68.00
37052;DHT22;22964;52.272;13.356;2023-02-01T04:58:56;9.50;67.80
37052;DHT22;22964;52.272;13.356;2023-02-01T05:01:22;9.50;67.80
37052;DHT22;22964;52.272;13.356;2023-02-01T05:03:50;9.60;67.80
37052;DHT22;22964;52.272;13.356;2023-02-01T05:06:16;9.60;67.90
37052;DHT22;22964;52.272;13.356;2023-02-01T05:08:41;9.60;67.90
37052;DHT22;22964;52.272;13.356;2023-02-01T05:11:07;9.60;68.10
37052;DHT22;22964;52.272;13.356;2023-02-01T05:13:53;9.60;68.00
37052;DHT22;22964;52.272;13.356;2023-02-01T05:16:19;9.60;67.80
37052;DHT22;22964;52.272;13.356;2023-02-01T05:18:45;9.60;67.80
37052;DHT22;22964;52.272;13.356;2023-02-01T05:21:10;9.60;67.80
37052;DHT22;22964;52.272;13.356;2023-02-01T05:23:36;9.60;67.80
37052;DHT22;22964;52.272;13.356;2023-02-01T05:26:22;9.60;67.80
37052;DHT22;22964;52.272;13.356;2023-02-01T05:28:47;9.60;67.80
37052;DHT22;22964;52.272;13.356;2023-02-01T05:31:13;9.60;67.80
37052;DHT22;22964;52.272;13.356;2023-02-01T05:33:39;9.50;67.80
37052;DHT22;22964;52.272;13.356;2023-02-01T05:36:05;9.60;67.80
37052;DHT22;22964;52.272;13.356;2023-02-01T05:38:30;9.60;67.70
37052;DHT22;22964;52.272;13.356;2023-02-01T05:40:56;9.60;68.10
37052;DHT22;22964;52.272;13.356;2023-02-01T05:43:22;9.60;67.80
37052;DHT22;22964;52.272;13.356;2023-02-01T05:45:48;9.60;68.00
37052;DHT22;22964;52.272;13.356;2023-02-01T05:48:14;9.60;67.90
37052;DHT22;22964;52.272;13.356;2023-02-01T05:50:40;9.60;68.00
37052;DHT22;22964;52.272;13.356;2023-02-01T05:53:08;9.60;67.70
37052;DHT22;22964;52.272;13.356;2023-02-01T05:55:34;9.60;67.90
37052;DHT22;22964;52.272;13.356;2023-02-01T05:57:59;9.60;68.00
37052;DHT22;22964;52.272;13.356;2023-02-01T06:00:25;9.60;67.90
37052;DHT22;22964;52.272;13.356;2023-02-01T06:02:51;9.60;67.80
37052;DHT22;22964;52.272;13.356;2023-02-01T06:05:16;9.60;67.90
37052;DHT22;22964;52.272;13.356;2023-02-01T06:07:42;9.60;67.80
37052;DHT22;22964;52.272;13.356;2023-02-01T06:10:09;9.60;67.90
37052;DHT22;22964;52.272;13.356;2023-02-01T06:12:35;9.50;67.70
37052;DHT22;22964;52.272;13.356;2023-02-01T06:15:00;9.60;67.90
37052;DHT22;22964;52.272;13.356;2023-02-01T06:17:26;9.50;67.50
37052;DHT22;22964;52.272;13.356;2023-02-01T06:19:52;9.50;68.70
37052;DHT22;22964;52.272;13.356;2023-02-01T06:22:18;9.50;67.70
37052;DHT22;22964;52.272;13.356;2023-02-01T06:24:43;9.50;67.60
37052;DHT22;22964;52.272;13.356;2023-02-01T06:27:09;9.50;67.60
37052;DHT22;22964;52.272;13.356;2023-02-01T06:29:35;9.50;67.70
37052;DHT22;22964;52.272;13.356;2023-02-01T06:32:01;9.50;67.70
37052;DHT22;22964;52.272;13.356;2023-02-01T06:34:28;9.50;68.40
37052;DHT22;22964;52.272;13.356;2023-02-01T06:36:54;9.50;67.60
37052;DHT22;22964;52.272;13.356;2023-02-01T06:39:20;9.50;67.70
37052;DHT22;22964;52.272;13.356;2023-02-01T06:41:47;9.50;67.70
37052;DHT22;22964;52.272;13.356;2023-02-01T06:44:13;9.50;67.80
37052;DHT22;22964;52.272;13.356;2023-02-01T06:46:39;9.50;67.60
37052;DHT22;22964;52.272;13.356;2023-02-01T06:49:04;9.50;67.70
37052;DHT22;22964;52.272;13.356;2023-02-01T06:51:30;9.50;67.70
37052;DHT22;22964;52.272;13.356;2023-02-01T06:53:56;9.50;67.70
37052;DHT22;22964;52.272;13.356;2023-02-01T06:56:22;9.40;67.70
37052;DHT22;22964;52.272;13.356;2023-02-01T06:58:48;9.40;67.80
37052;DHT22;22964;52.272;13.356;2023-02-01T07:01:15;9.40;67.70
37052;DHT22;22964;52.272;13.356;2023-02-01T07:03:41;9.40;67.80
37052;DHT22;22964;52.272;13.356;2023-02-01T07:06:08;9.40;67.90
37052;DHT22;22964;52.272;13.356;2023-02-01T07:08:36;9.40;67.90
37052;DHT22;22964;52.272;13.356;2023-02-01T07:11:07;9.40;67.80
37052;DHT22;22964;52.272;13.356;2023-02-01T07:13:33;9.40;67.80
37052;DHT22;22964;52.272;13.356;2023-02-01T07:16:00;9.40;67.80
37052;DHT22;22964;52.272;13.356;2023-02-01T07:18:27;9.40;67.90
37052;DHT22;22964;52.272;13.356;2023-02-01T07:20:53;9.50;67.90
37052;DHT22;22964;52.272;13.356;2023-02-01T07:23:19;9.50;67.90
37052;DHT22;22964;52.272;13.356;2023-02-01T07:25:46;9.50;68.90
37052;DHT22;22964;52.272;13.356;2023-02-01T07:28:11;9.40;68.10
37052;DHT22;22964;52.272;13.356;2023-02-01T07:30:37;9.40;68.10
37052;DHT22;22964;52.272;13.356;2023-02-01T07:33:03;9.50;68.30
37052;DHT22;22964;52.272;13.356;2023-02-01T07:35:29;9.50;68.50
37052;DHT22;22964;52.272;13.356;2023-02-01T07:37:54;9.40;68.50
37052;DHT22;22964;52.272;13.356;2023-02-01T07:40:23;9.50;68.80
37052;DHT22;22964;52.272;13.356;2023-02-01T07:42:57;9.50;68.90
37052;DHT22;22964;52.272;13.356;2023-02-01T07:45:23;9.50;68.90
37052;DHT22;22964;52.272;13.356;2023-02-01T07:47:51;9.50;68.90
37052;DHT22;22964;52.272;13.356;2023-02-01T07:50:17;9.50;69.00
37052;DHT22;22964;52.272;13.356;2023-02-01T07:52:43;9.50;69.10
37052;DHT22;22964;52.272;13.356;2023-02-01T07:55:09;9.50;69.30
37052;DHT22;22964;52.272;13.356;2023-02-01T07:57:35;9.50;69.40
37052;DHT22;22964;52.272;13.356;2023-02-01T08:00:00;9.40;69.30
37052;DHT22;22964;52.272;13.356;2023-02-01T08:02:45;9.40;69.60
37052;DHT22;22964;52.272;13.356;2023-02-01T08:05:11;9.40;69.80
37052;DHT22;22964;52.272;13.356;2023-02-01T08:07:36;9.30;69.90
37052;DHT22;22964;52.272;13.356;2023-02-01T08:10:02;9.30;70.30
37052;DHT22;22964;52.272;13.356;2023-02-01T08:12:31;9.30;70.40
37052;DHT22;22964;52.272;13.356;2023-02-01T08:14:56;9.20;70.60
37052;DHT22;22964;52.272;13.356;2023-02-01T08:17:22;9.20;70.90
37052;DHT22;22964;52.272;13.356;2023-02-01T08:19:48;9.10;71.30
37052;DHT22;22964;52.272;13.356;2023-02-01T08:22:14;9.10;71.80
37052;DHT22;22964;52.272;13.356;2023-02-01T08:24:39;9.10;72.10
37052;DHT22;22964;52.272;13.356;2023-02-01T08:27:06;9.10;72.20
37052;DHT22;22964;52.272;13.356;2023-02-01T08:29:32;9.00;72.40
37052;DHT22;22964;52.272;13.356;2023-02-01T08:31:58;9.00;72.90
37052;DHT22;22964;52.272;13.356;2023-02-01T08:34:23;8.90;73.20
37052;DHT22;22964;52.272;13.356;2023-02-01T08:36:49;8.90;73.60
37052;DHT22;22964;52.272;13.356;2023-02-01T08:39:17;8.90;74.00
37052;DHT22;22964;52.272;13.356;2023-02-01T08:41:43;8.80;74.00
37052;DHT22;22964;52.272;13.356;2023-02-01T08:44:28;8.80;74.20
37052;DHT22;22964;52.272;13.356;2023-02-01T08:46:54;8.80;74.50
37052;DHT22;22964;52.272;13.356;2023-02-01T08:49:20;8.80;74.50
37052;DHT22;22964;52.272;13.356;2023-02-01T08:51:45;8.80;74.90
37052;DHT22;22964;52.272;13.356;2023-02-01T08:54:11;8.80;75.30
37052;DHT22;22964;52.272;13.356;2023-02-01T08:56:36;8.70;75.20
37052;DHT22;22964;52.272;13.356;2023-02-01T08:59:02;8.70;75.60
37052;DHT22;22964;52.272;13.356;2023-02-01T09:01:28;8.70;75.60
37052;DHT22;22964;52.272;13.356;2023-02-01T09:03:54;8.70;75.80
37052;DHT22;22964;52.272;13.356;2023-02-01T09:06:19;8.70;75.90
37052;DHT22;22964;52.272;13.356;2023-02-01T09:08:45;8.60;76.30
37052;DHT22;22964;52.272;13.356;2023-02-01T09:11:15;8.60;76.20
37052;DHT22;22964;52.272;13.356;2023-02-01T09:13:41;8.60;77.10
37052;DHT22;22964;52.272;13.356;2023-02-01T09:16:07;8.60;76.30
37052;DHT22;22964;52.272;13.356;2023-02-01T09:18:33;8.60;76.70
37052;DHT22;22964;52.272;13.356;2023-02-01T09:20:59;8.60;76.60
37052;DHT22;22964;52.272;13.356;2023-02-01T09:23:28;8.60;76.90
37052;DHT22;22964;52.272;13.356;2023-02-01T09:25:54;8.60;77.00
37052;DHT22;22964;52.272;13.356;2023-02-01T09:28:23;8.60;77.30
37052;DHT22;22964;52.272;13.356;2023-02-01T09:30:49;8.60;77.10
37052;DHT22;22964;52.272;13.356;2023-02-01T09:33:15;8.60;77.00
37052;DHT22;22964;52.272;13.356;2023-02-01T09:35:43;8.60;77.10
37052;DHT22;22964;52.272;13.356;2023-02-01T09:38:08;8.60;77.20
37052;DHT22;22964;52.272;13.356;2023-02-01T09:40:35;8.60;77.10
37052;DHT22;22964;52.272;13.356;2023-02-01T09:48:32;8.60;77.50
37052;DHT22;22964;52.272;13.356;2023-02-01T09:50:59;8.70;77.40
37052;DHT22;22964;52.272;13.356;2023-02-01T09:53:33;8.70;78.40
37052;DHT22;22964;52.272;13.356;2023-02-01T09:58:41;8.70;77.40
37052;DHT22;22964;52.272;13.356;2023-02-01T10:01:22;8.70;77.50
37052;DHT22;22964;52.272;13.356;2023-02-01T10:03:49;8.70;77.70
37052;DHT22;22964;52.272;13.356;2023-02-01T10:06:30;8.70;77.40
37052;DHT22;22964;52.272;13.356;2023-02-01T10:20:44;8.80;76.60
37052;DHT22;22964;52.272;13.356;2023-02-01T10:26:22;8.80;76.60
37052;DHT22;22964;52.272;13.356;2023-02-01T10:28:59;8.90;76.80
37052;DHT22;22964;52.272;13.356;2023-02-01T10:31:29;8.90;76.80
37052;DHT22;22964;52.272;13.356;2023-02-01T10:33:58;8.90;76.70
37052;DHT22;22964;52.272;13.356;2023-02-01T10:36:40;9.00;76.70
37052;DHT22;22964;52.272;13.356;2023-02-01T10:39:08;9.00;77.00
37052;DHT22;22964;52.272;13.356;2023-02-01T10:41:36;9.00;76.50
37052;DHT22;22964;52.272;13.356;2023-02-01T10:44:10;9.00;76.30
37052;DHT22;22964;52.272;13.356;2023-02-01T10:46:37;9.00;76.20
37052;DHT22;22964;52.272;13.356;2023-02-01T10:49:04;9.10;76.40
37052;DHT22;22964;52.272;13.356;2023-02-01T10:52:50;9.10;76.20
37052;DHT22;22964;52.272;13.356;2023-02-01T10:54:55;9.10;76.30
37052;DHT22;22964;52.272;13.356;2023-02-01T10:57:25;9.20;76.00
37052;DHT22;22964;52.272;13.356;2023-02-01T10:59:53;9.20;76.20
37052;DHT22;22964;52.272;13.356;2023-02-01T11:02:39;9.20;76.40
37052;DHT22;22964;52.272;13.356;2023-02-01T11:05:07;9.30;76.40
37052;DHT22;22964;52.272;13.356;2023-02-01T11:07:39;9.30;75.90
37052;DHT22;22964;52.272;13.356;2023-02-01T11:10:05;9.40;76.00
37052;DHT22;22964;52.272;13.356;2023-02-01T11:12:33;9.40;75.70
37052;DHT22;22964;52.272;13.356;2023-02-01T11:15:24;9.40;75.90
37052;DHT22;22964;52.272;13.356;2023-02-01T11:17:50;9.50;75.80
37052;DHT22;22964;52.272;13.356;2023-02-01T11:20:40;9.50;75.80
37052;DHT22;22964;52.272;13.356;2023-02-01T11:23:18;9.60;75.80
37052;DHT22;22964;52.272;13.356;2023-02-01T11:25:53;9.60;75.70
37052;DHT22;22964;52.272;13.356;2023-02-01T11:28:23;9.70;75.50
37052;DHT22;22964;52.272;13.356;2023-02-01T11:30:49;9.70;75.30
37052;DHT22;22964;52.272;13.356;2023-02-01T11:33:19;9.80;75.30
37052;DHT22;22964;52.272;13.356;2023-02-01T11:35:47;9.80;75.00
37052;DHT22;22964;52.272;13.356;2023-02-01T11:38:29;9.90;75.70
37052;DHT22;22964;52.272;13.356;2023-02-01T11:41:14;9.90;74.60
37052;DHT22;22964;52.272;13.356;2023-02-01T11:43:58;9.90;74.50
37052;DHT22;22964;52.272;13.356;2023-02-01T11:46:28;10.00;74.40
37052;DHT22;22964;52.272;13.356;2023-02-01T11:48:55;10.00;74.30
37052;DHT22;22964;52.272;13.356;2023-02-01T11:54:35;10.10;74.30
37052;DHT22;22964;52.272;13.356;2023-02-01T11:57:08;10.10;74.10
37052;DHT22;22964;52.272;13.356;2023-02-01T12:09:04;10.30;73.20
37052;DHT22;22964;52.272;13.356;2023-02-01T12:19:26;10.50;72.10
37052;DHT22;22964;52.272;13.356;2023-02-01T12:36:12;10.90;70.20
37052;DHT22;22964;52.272;13.356;2023-02-01T12:41:53;10.90;69.70
37052;DHT22;22964;52.272;13.356;2023-02-01T12:44:27;10.90;69.90
37052;DHT22;22964;52.272;13.356;2023-02-01T12:47:04;10.90;69.60
37052;DHT22;22964;52.272;13.356;2023-02-01T12:52:26;10.80;69.20
37052;DHT22;22964;52.272;13.356;2023-02-01T12:57:32;10.90;69.40
37052;DHT22;22964;52.272;13.356;2023-02-01T13:00:23;10.80;69.10
37052;DHT22;22964;52.272;13.356;2023-02-01T13:03:00;10.80;69.10
37052;DHT22;22964;52.272;13.356;2023-02-01T13:05:40;10.80;69.30
37052;DHT22;22964;52.272;13.356;2023-02-01T13:08:13;10.80;69.00
37052;DHT22;22964;52.272;13.356;2023-02-01T13:10:48;10.80;69.10
37052;DHT22;22964;52.272;13.356;2023-02-01T13:13:31;10.80;69.00
37052;DHT22;22964;52.272;13.356;2023-02-01T13:16:16;10.70;69.00
37052;DHT22;22964;52.272;13.356;2023-02-01T13:18:46;10.80;68.90
37052;DHT22;22964;52.272;13.356;2023-02-01T13:23:46;10.80;68.60
37052;DHT22;22964;52.272;13.356;2023-02-01T13:26:13;10.70;68.80
37052;DHT22;22964;52.272;13.356;2023-02-01T13:28:53;10.80;68.80
37052;DHT22;22964;52.272;13.356;2023-02-01T13:40:16;10.70;68.30
37052;DHT22;22964;52.272;13.356;2023-02-01T13:43:34;10.70;68.60
37052;DHT22;22964;52.272;13.356;2023-02-01T13:45:52;10.70;68.50
37052;DHT22;22964;52.272;13.356;2023-02-01T13:48:38;10.80;69.30
37052;DHT22;22964;52.272;13.356;2023-02-01T13:51:05;10.80;68.50
37052;DHT22;22964;52.272;13.356;2023-02-01T13:53:34;10.90;68.80
37052;DHT22;22964;52.272;13.356;2023-02-01T13:56:07;10.80;68.80
37052;DHT22;22964;52.272;13.356;2023-02-01T13:58:41;10.90;68.90
37052;DHT22;22964;52.272;13.356;2023-02-01T14:03:49;10.90;68.60
37052;DHT22;22964;52.272;13.356;2023-02-01T14:19:30;11.00;68.10
37052;DHT22;22964;52.272;13.356;2023-02-01T14:22:31;11.00;68.30
37052;DHT22;22964;52.272;13.356;2023-02-01T14:25:16;11.00;68.00
37052;DHT22;22964;52.272;13.356;2023-02-01T14:27:43;11.00;67.60
37052;DHT22;22964;52.272;13.356;2023-02-01T14:30:15;11.00;67.90
37052;DHT22;22964;52.272;13.356;2023-02-01T14:32:42;11.00;67.60
37052;DHT22;22964;52.272;13.356;2023-02-01T14:35:25;10.90;67.80
37052;DHT22;22964;52.272;13.356;2023-02-01T14:37:54;10.90;67.40
37052;DHT22;22964;52.272;13.356;2023-02-01T14:40:24;10.90;67.80
37052;DHT22;22964;52.272;13.356;2023-02-01T14:42:52;11.00;68.20
37052;DHT22;22964;52.272;13.356;2023-02-01T14:53:20;10.90;67.40
37052;DHT22;22964;52.272;13.356;2023-02-01T14:56:06;10.90;67.40
37052;DHT22;22964;52.272;13.356;2023-02-01T15:04:13;10.90;67.20
37052;DHT22;22964;52.272;13.356;2023-02-01T15:06:58;10.90;67.40
37052;DHT22;22964;52.272;13.356;2023-02-01T15:09:30;10.90;67.30
37052;DHT22;22964;52.272;13.356;2023-02-01T15:14:36;10.70;67.00
37052;DHT22;22964;52.272;13.356;2023-02-01T15:17:16;10.60;67.30
37052;DHT22;22964;52.272;13.356;2023-02-01T15:19:56;10.50;67.70
37052;DHT22;22964;52.272;13.356;2023-02-01T15:22:25;10.40;68.10
37052;DHT22;22964;52.272;13.356;2023-02-01T15:24:59;10.30;68.20
37052;DHT22;22964;52.272;13.356;2023-02-01T15:27:26;10.20;68.60
37052;DHT22;22964;52.272;13.356;2023-02-01T15:29:52;10.10;68.90
37052;DHT22;22964;52.272;13.356;2023-02-01T15:32:36;10.10;69.20
37052;DHT22;22964;52.272;13.356;2023-02-01T15:35:03;10.00;69.50
37052;DHT22;22964;52.272;13.356;2023-02-01T15:37:29;9.90;69.60
37052;DHT22;22964;52.272;13.356;2023-02-01T15:42:49;9.80;70.20
37052;DHT22;22964;52.272;13.356;2023-02-01T15:45:18;9.80;70.50
37052;DHT22;22964;52.272;13.356;2023-02-01T15:47:56;9.70;70.60
37052;DHT22;22964;52.272;13.356;2023-02-01T15:50:22;9.70;71.10
37052;DHT22;22964;52.272;13.356;2023-02-01T15:52:51;9.70;71.20
37052;DHT22;22964;52.272;13.356;2023-02-01T15:55:37;9.70;71.40
37052;DHT22;22964;52.272;13.356;2023-02-01T15:58:17;9.70;71.70
37052;DHT22;22964;52.272;13.356;2023-02-01T16:00:46;9.60;71.80
37052;DHT22;22964;52.272;13.356;2023-02-01T16:03:33;9.60;72.10
37052;DHT22;22964;52.272;13.356;2023-02-01T16:08:52;9.50;72.30
37052;DHT22;22964;52.272;13.356;2023-02-01T16:13:48;9.50;72.50
37052;DHT22;22964;52.272;13.356;2023-02-01T16:16:14;9.50;72.60
37052;DHT22;22964;52.272;13.356;2023-02-01T16:18:41;9.50;72.90
37052;DHT22;22964;52.272;13.356;2023-02-01T16:21:07;9.40;72.80
37052;DHT22;22964;52.272;13.356;2023-02-01T16:23:39;9.50;72.90
37052;DHT22;22964;52.272;13.356;2023-02-01T16:26:06;9.40;73.10
37052;DHT22;22964;52.272;13.356;2023-02-01T16:28:32;9.40;72.90
37052;DHT22;22964;52.272;13.356;2023-02-01T16:30:59;9.40;73.00
37052;DHT22;22964;52.272;13.356;2023-02-01T16:33:24;9.40;72.40
37052;DHT22;22964;52.272;13.356;2023-02-01T16:35:51;9.30;71.80
37052;DHT22;22964;52.272;13.356;2023-02-01T16:38:19;9.20;71.30
37052;DHT22;22964;52.272;13.356;2023-02-01T16:40:51;9.10;70.80
37052;DHT22;22964;52.272;13.356;2023-02-01T16:43:24;9.00;70.60
37052;DHT22;22964;52.272;13.356;2023-02-01T16:45:53;9.00;70.50
37052;DHT22;22964;52.272;13.356;2023-02-01T16:48:29;8.80;70.50
37052;DHT22;22964;52.272;13.356;2023-02-01T16:51:00;8.70;70.60
37052;DHT22;22964;52.272;13.356;2023-02-01T16:53:30;8.60;70.50
37052;DHT22;22964;52.272;13.356;2023-02-01T16:55:59;8.60;70.70
37052;DHT22;22964;52.272;13.356;2023-02-01T16:58:28;8.50;71.10
37052;DHT22;22964;52.272;13.356;2023-02-01T17:00:54;8.40;72.20
37052;DHT22;22964;52.272;13.356;2023-02-01T17:03:21;8.30;71.70
37052;DHT22;22964;52.272;13.356;2023-02-01T17:05:51;8.30;72.00
37052;DHT22;22964;52.272;13.356;2023-02-01T17:08:22;8.20;72.40
37052;DHT22;22964;52.272;13.356;2023-02-01T17:10:49;8.10;72.60
37052;DHT22;22964;52.272;13.356;2023-02-01T17:13:18;8.10;72.90
37052;DHT22;22964;52.272;13.356;2023-02-01T17:15:56;8.10;73.40
37052;DHT22;22964;52.272;13.356;2023-02-01T17:18:23;8.10;73.80
37052;DHT22;22964;52.272;13.356;2023-02-01T17:20:51;8.10;74.30
37052;DHT22;22964;52.272;13.356;2023-02-01T17:23:19;8.10;74.40
37052;DHT22;22964;52.272;13.356;2023-02-01T17:25:45;8.00;74.40
37052;DHT22;22964;52.272;13.356;2023-02-01T17:28:13;8.00;74.70
37052;DHT22;22964;52.272;13.356;2023-02-01T17:30:39;8.00;74.80
37052;DHT22;22964;52.272;13.356;2023-02-01T17:33:23;8.10;74.90
37052;DHT22;22964;52.272;13.356;2023-02-01T17:35:53;8.10;75.50
37052;DHT22;22964;52.272;13.356;2023-02-01T17:38:24;8.10;75.30
37052;DHT22;22964;52.272;13.356;2023-02-01T17:40:50;8.10;75.30
37052;DHT22;22964;52.272;13.356;2023-02-01T17:43:24;8.10;75.30
37052;DHT22;22964;52.272;13.356;2023-02-01T17:46:12;8.10;75.80
37052;DHT22;22964;52.272;13.356;2023-02-01T17:48:39;8.20;75.60
37052;DHT22;22964;52.272;13.356;2023-02-01T17:51:19;8.20;75.60
37052;DHT22;22964;52.272;13.356;2023-02-01T17:53:45;8.20;75.30
37052;DHT22;22964;52.272;13.356;2023-02-01T17:56:20;8.20;75.60
37052;DHT22;22964;52.272;13.356;2023-02-01T17:58:47;8.30;75.60
37052;DHT22;22964;52.272;13.356;2023-02-01T18:01:20;8.30;75.40
37052;DHT22;22964;52.272;13.356;2023-02-01T18:03:46;8.30;75.80
37052;DHT22;22964;52.272;13.356;2023-02-01T18:06:22;8.30;75.60
37052;DHT22;22964;52.272;13.356;2023-02-01T18:08:51;8.30;75.80